Terminal Aerodrome Forecast
Issued by NWS Memphis, TN

Home | Current Version | Previous Version | Text Only | Print | Product List | Glossary On
Versions: 1 2 3 4 5 6 7 8 9 10 11 12 13 14 15 16 17 18 19 20 21
000
FTUS44 KMEG 302051 AAC
TAFMKL
TAF AMD
KMKL 302051Z 3021/3118 08008KT P6SM FEW050
     FM310000 04004KT P6SM VCTS BKN060CB
     FM311000 00000KT P6SM VCSH BKN050
     FM311400 06002KT P6SM BKN050=

USA.gov is the U.S. government's official web portal to all federal, state and local government web resources and services.